Ir al contenido principal

Entradas

Mostrando las entradas de mayo, 2010

Cierre del aeródromo de San Justo

Se cerró el aeródromo de San Justo
Inaugurado el 13 de Enero 1908


NOTAM
C1624/2010SAN JUSTO/AEROCLUB ARGENTINO
(JUS)
Desde: 2010-05-28 16:09:00
Hasta: 2010-08-28 23:59:00AD CLSD


Opinión de un lector del blog, que he elegido porque a mi criterio es muy clara sobre porque la ANAC posiblemente decidió cerrar dicho aeródromo. La comparto con todos ustedes.

Comienza así:

Voy a dar mi opinión al respecto y estoy seguro que no va a ser del agrado de muchos, pero estoy convencido que tanto San Justo como La Matanza deberían cerrarse.

Actualmente ambos espacios aéreos son fundamentales para las operaciones del Aeropuerto de Ezeiza, ya que se encuentran dentro de un radio de entre 5 y 10 NM de este, entre el NW y NE restringindiendo sobremanera la libre circulación de las aeronaves (actualmente de gran porte como el A340 - B747 y otros) que circulan hacia la RWY 17 o 29 y las que despegan de la RWY 35 o 29, también porque como ya lo hemos planteado en varias oportunidades la operación irrespo…

ULTIMO MOMENTO: Aterrizaje en emergencia en la Autopista La Plata Buenos Aires LV-HPN

Primicia 19:05 Hs

Un avión hace minutos aterrizo en emergencia en la autopista Buenos Aires La Plata lateral Quilmes, unos 300 metros antes del aeroclub Río de la Plata desde Capital. Personal de la AU ya está en el lugar del hecho, el piloto ileso.

Matrícula: LV-RPN

Ampliaré cuando tenga más noticias.

Corresponsal: Verónica Muñoz

Roberto Julio Gómez

Relato del piloto en aeroforo

Buenas noches a todos!!!

Queria informales que por suerte tanto el Piloto, que soy yo, su acompañante y la aeronave no sufrimos daño alguno!!!

Despues de haber hecho full de combustible, drenado de los 3 tanques (2 Alas y el Vaso del Ventral), puesta en marcha, dejar que caliente, prueba de magnetos, controles de vuelo, etc. Me dispongo a hacer circuitos sobre el aeroclub, luego de 10/12 (30/45 minutos). Aterrizo para saludar a un ex-dueño de la aeronave y lo invito a dar una vuelta.-

Hicimos una pasada por las playas de Quilmes y circuito más y despues de despegado de cabecera a unos 500 pies aprox y 500 mts del…

Conflicto en el ACC Ezeiza

Informaciónes de último momento dan cuenta de la siguiente situación planteada en el día de hoy.

Se ha removido de sus cargos a varios supervisores del ACC. La ANAC tomo la desición sobre algunos de ellos pero se extendería sobre todos. La idea que quieren imponer es que sean ocupados por consurso. Esta idea que a primera vista parece coherente (el concurso) es improcedente ya que afecta a muchos controladores que se han ganado el puesto con años de trabajo y cuentan con vasta experiencia. Del día a la noche no se puede realizar un cambio de este tipo afectando la vida de muchas personas.

Sí es factible realizarlo con controladores nuevos, que aspiren a ocupar un puesto e implementar esta modalidad del concurso de ahora en adelante. Borrar de un plumazo lo que se contruyó durante años no es la mejor manera de cambiar las cosas.

Por el momento esta es la situación, se estan tomando medidas por parte de los controladores de un tránsito cada 15 minutos, tanto en Aeroparque, Ezeiza y en el A…

AF447: termina la búsqueda de las cajas negras

AF447: termina la búsqueda de las cajas negrasGerardo Lissardy BBC Mundo, París
La búsqueda de las cajas negras del vuelo AF447, que hace un año cayó al Océano Atlántico con 228 personas a bordo, terminó sin éxito y se ignora si se retomará algún día, anunció la oficina francesa que indaga la tragedia."La fase número tres (de búsqueda) está terminada", declaró Alain Guilldou, jefe de comunicación de la oficina investigadora francesa BEA, en diálogo telefónico con BBC Mundo este martes.Guilldou dijo que los esfuerzos concluyeron "sin resultados" y que "por el momento ninguna decisión se ha tomado" sobre una eventual nueva fase de búsqueda, reclamada por los familiares de las víctimas.El Airbus 330 de Air France se precipitó al océano cuando volaba de Río de Janeiro a París la noche del 31 de mayo al 1 de junio del año pasado y todas las personas que viajaban a bordo fueron declaradas muertas.Oficialmente siguen sin determinarse los motivos de l…

Cierran Aeroparque por el despiste de un Lear 60 LV-CCO

Poco después de las 18, se despistó un Lear Jet que estaba arribando al Aeroparque Metropolitano Jorge Newbery, sin que se produjeran víctimas fatales En el pequeño avión viajaban dos tripulantes y siete pasajeros que no sufrieron heridas e inmediatamente fueron atendidos por personal del aeroparque metropolitano.

La oficina, de Administración Nacional de Aviación Civil (Anac), dispuso el cierre momentáneo del aeropuerto mientras se trataba de remover la máquina que quedó al costado de la pista.

Por este inconveniente, los vuelos se desviaban a los aeropuertos alternativos de Ezeiza o San Fernando, informó en un comunicado la Anac. Aeroparque está cerrado por despiste de un aviónPor causas que se tratan de establecer, un pequeño avión se salió de pista cuando aterrizaba y se enterró en el césped, en momentos que arreciaba la lluvia sobre la pista del aeroparque.

Mientras se trata de remover a la aeronave del lugar del accidente, se informa que momentáneamente los despegues …

Accidente en la India, B737 de Air India en el aeropuerto de Mangalore

Comunicado de Air India Air India Express IX-812 Incident - Press Release 1May 22, 2010Air India Express regrets to announce that a B737-800 aircraft operating as flight IX-812 from Dubai to Mangalore was involved in an accident early this morning, May 22, 2010. The accident occurred after the aircraft landed at Mangalore airport and overshot the runway. Air India is currently confirming the identities of the casualties.

Air India is deploying all its resources for assisting passengers and their families. Air India Express Dubai Airport Tel. Nos. 00971-4-2165828/29.

El video contiene escenas que pueden herir la sensibilidad de algunas personas.




India: al menos 158 personas murieron en un accidente aéreoLa aeronave se salió de la pista de aterrizaje en el aeropuerto de la ciudad de Mangalore; hay ocho sobrevivientes, uno de ellos resultó ileso.NUEVA DELHI.- Al menos 158 personas fallecieron esta madrugada cuando un avión de la compañía Air India proveniente de Dubai se estrell…

Actualización LAD (Lugares Aptos Denunciados)

Lugares Aptos denunciados actualizado a Mayo 13, 2010



click sobre la imagen para descargar

Construirían un aeropuerto en Termas de Río Hondo

Prevén inaugurar el aeropuerto de Las Termas en mayo de 2012

El gobernador de la Provincia, Gerardo Zamora y el ministro de Planificación Federal e Inversión Pública de la Nación, Julio de Vido, encabezaron en Casa de Gobierno, la ceremonia de firma del contrato para dar inicio a la construcción de la Ruta 3, entre Las Termas y Santa Catalina; y un convenio para promover la construcción del aeropuerto de Las Termas de Río Hondo que, en una segunda etapa, tendrá el status de internacional. Zamora remarcó que se prevé comenzar a fin de año con la construcción del aeropuerto e inaugurar la obra en el lanzamiento de la temporada termal en mayo de 2012.

La trascendental ceremonia se realizó en el salón de acuerdos Juan Felipe Ibarra y contó con la participación del coordinador general de la Unidad de Coordinación del Ministerio de Planificación Federal, Pablo Abal Medina; del jefe de Gabinete de Ministros, Elías Suárez; además de la totalidad de miembros del Gabinete de Gobierno…

Accidente A332 en Trípoli Libia

Metars:
HLLT 120620 VRB03KT 2000 BR BKN003 20/18 Q1009
HLLT 120620Z VRB03KT 2000 BR BKN003 20/18 Q1009
HLLT 120550 00000KT 2000 BR BKN003 19/18 Q1009
HLLT 120550Z 00000KT 2000 BR BKN003 19/18 Q1009
HLLT 120520Z VRB03KT 2000 BR BKN003 19/17 Q1009
HLLT 120450Z 26007KT 2000 BR FEW003 19/17 Q1009
HLLT 120425Z 27008KT 2000 BR NSC 19/17 Q1009
HLLT 120420Z 27007KT 5000 BR NSC 19/17 Q1009
HLLT 120350Z VRB01KT 6000 NSC 19/17 Q1008
HLLT 120250Z 35003KT 6000 SKC 19/17 Q1008
HLLT 112350Z 31004KT 7000 SKC 20/17 Q1008
HLLT 112250 32005KT 7000 SKC 21/17 Q1008
HLLT 112250Z 32005KT 7000 SKC 21/17 Q1008
HLLT 112150 34003KT 7000 SKC 22/16 Q1008

Relevant NOTAM:
A0033/10 - INTERFERNCE FROM SIGNAL BEING EXPERIENCED DURING CURRUNT AIRPORT DEVELOPMENT WORK ( TPI VOR SHOULD BE USED WITH CAUTION. 21 FEB 10:47 2010 UNTIL 15 MAY 10:30 2010. CREATED: 21 FEB 11:12 2010






Comunicado oficial de la empresa

Afriqiyah Flight 771 crash release 2


statement two 12May05 09:00 UTCWe are very sorry to announce the tragic loss o…

Festival en San Rosa, La Pampa

Informe extraído del blog: Airprevac









martes, mayo 11, 2010
FESTIVAL AERONÁUTICO II SANTA ROSA

Los días 8 y 9 de mayo de 2010 se desarrolló en el aeródromo público El Pampero de Santa Rosa La Pampa la segunda edición del Festival Aeronáutico, organizada por el Club de Planeadores Santa Rosa.


En esta oportunidad, declarado de interés municipal en el marco de los festejos del Bicentenario de la Patria, tuvo la capacidad de convertirse en el evento más importante de la provincia programado para el mes de mayo, convocando a más de 10.000 personas por jornada.



Esto sació la sed atrasada de la comunidad en lo que a espectáculos deportivos aeronáuticos se refiere, ya que, sin contar este festival aéreo y su edición 2009, deberíamos remontarnos a los campeonatos nacionales de vuelo a vela del año 1991 y 1993, también organizados por el Club de Planeadores Santa Rosa (aunque en esa oportunidad en el aeropuerto mismo de la capital provincial) para recordar un evento de esta envergadura.



Por supuesto e…

Accidente aéreo de Spanair: Nuevas revelciones del caso

Fuente: El Pais.com
Caos y tensión en las conversaciones de la Torre de Control en el accidente de Spanair en Barajas La Cadena SER ha tenido acceso a las conversaciones de la Torre de Control de Barajas después del accidente aéreo que se produjo el 20 de agosto de 2008 y que costó la vida a 154 personas
Caos y tensión en las conversaciones de la Torre de Control en el accidente de Spanair en Barajas


"Es un parche lo que han hecho ahí"Las cajas negras del JK5022 en el que murieron 152 personas grabaron las quejas de los pilotos sobre las reparaciones en el avión.- Personal de emergencias y del servicio de mantenimiento de Spanair testifican hoy ante el juez
La caja negra del vuelo JK5022 del Spanair, en el que fallecieron 154 personas el 20 de agosto de 2008 en Barajas, revela las quejas en el interior de la cabina por la reparación que hicieron los técnicos de mantenimiento para solventar el calentamiento de la sonda de temperatura exterior RAT. Retiraron un relé …

Los corredores visuales en la TMA Baires

Los corredores visuales dentro del TMA BAIRES, hoy día se han convertido en un arma de doble filo. Vuelos no controlados conviven con vuelos controlados en un área de alta densidad de tráfico como es este TMA y las CTRs que lo componen (incluidas sus respectivas ATZs).

Para tener una idea general sobre la hipótesis que planteo aquí realizo la enumeración de algunos aeródromos y aeropuertos que tienen sus CTR y ATZ dentro de la TMA Baires

1. Aeroparque
2. Ezeiza
3. Morón
4. Palomar
5. San Fernando (Con muchas escuelas de vuelo)
6. Moreno
7. Matanza
8. Aeroclub Argentino
9. San Justo
10. Marcos Paz
11. Ezpeleta
12. Florencio Varela/El Pájaro
13. Merlo
14. Quilmes

Entre otros aptos denunciados, dentro de un radio entre unas 25 y 40 millas náuticas se concentran gran cantidad de aeródromos y aeropuertos.

Sobre una captura de Google Earth me tome el trabajo de graficar los corredores con líneas rojas, con línea celeste la trayectoria final de pista 11 en Ezeiza desde ARSOT. Los círculos amarillos indican 5…

Localizan las cajas negras del avión de Air France que cayó al Atlántico

Localizan cajas negras del vuelo AF447 de Air France Gerardo LissardyBBC Mundo, ParísFrancia anunció este jueves que localizó la zona donde se encuentran las cajas negras del vuelo AF447 que el año pasado cayó al Océano Atlántico, pero advirtió que falta confirmar si podrá recuperarlas.El Ministerio francés de Defensa informó que marcó un punto del Atlántico con un margen de error de cinco kilómetros donde estarían las cajas negras, consideradas clave para entender la tragedia que mató a 228 personas.El Airbus 330 de Air France se precipitó al océano cuando volaba de Río de Janeiro a París en la noche del 31 de mayo al 1° de junio de 2009, sin que hasta ahora se hayan determinado oficialmente los motivos de esa caída.El portavoz gubernamental francés Luc Chatel pidió este jueves ser "extremadamente prudentes" tras el anuncio de la posible localización de los aparatos que registran información sobre el vuelo."Ahora debemos ver si es posible recuperar …

Perú: Modernización del Centro de Control de Lima

INDRA MODERNIZA LA GESTIÓN DEL TRÁFICO AÉREO EN PERÚ CON TECNOLOGÍA PUNTA POR 34 MILLONES DE DÓLARES




Un nuevo centro de control en Lima ordenará el tráfico aéreo de todo el país.
La red de estaciones radar cubrirá toda su geografía, aumentando la seguridad y el número de vuelos que podrán operar.
Pondrá en marcha un centro de formación avanzado dotado con un simulador para controladores aéreos Indra modernizará los sistemas de gestión de tráfico aéreo de Perú, dando a sus aeropuertos la posibilidad de incrementar sensiblemente el número de vuelos que gestionan y garantizando al mismo tiempo el máximo nivel de seguridad en aviación civil. La compañía pondrá en marcha un nuevo centro de control de tráfico aéreo en Lima y desplegará una red de estaciones de radar secundario de vigilancia, que cubrirán la práctica totalidad del espacio aéreo del país.

El proyecto ha sido adjudicado a Indra por la Organización de Aviación Civil Internacional (OACI) en concurso público internacional, en el que …

United y Continental concretan fusión

United y Continental concretan fusiónLas empresas anunciaron la decisión de integrarse y crear la mayor aerolínea del mundo; tras la operación de 3,000 millones de dólares, ofrecerán vuelos desde Shanghai a Sudamérica.

NUEVA YORK (AP) — United y Continental Airlines anunciaron este lunes la decisión de integrarse para crear la aerolínea más grande del mundo, en una transacción con un valor de alrededor de 3,000 millones de dólares. La nueva empresa aérea superaría con mucho a Delta Air Lines en tamaño y tendría vuelos desde Shanghai a Sudamérica. El nombre de United se mantendrá, aunque los aviones tendrán los colores y el logotipo de Continental. Las compañías dijeron que Houston será su principal centro de operaciones. La aerolínea resultante será dirigida por el director general de Continental, Jeffery Smisek. El director general de United, Glenn Tilton, partidario desde hace tiempo de la consolidación de la industria aérea, será el presidente por un máximo de dos años, con Sm…